createdAt,value
2023-03-03T00:01:36.228Z,22.75
2023-03-03T00:04:25.515Z,23.77
2023-03-03T00:07:15.556Z,22.45
2023-03-03T00:10:05.226Z,21.80
2023-03-03T00:12:54.468Z,23.02
2023-03-03T00:15:44.258Z,22.13
2023-03-03T00:18:38.005Z,25.10
2023-03-03T00:21:30.880Z,29.25
2023-03-03T00:24:24.186Z,24.13
2023-03-03T00:27:24.554Z,26.33
2023-03-03T00:30:25.811Z,27.23
2023-03-03T00:33:29.244Z,32.17
2023-03-03T00:36:34.777Z,30.40
2023-03-03T00:39:32.989Z,30.58
2023-03-03T00:42:22.232Z,30.00
2023-03-03T00:45:30.033Z,47.42
2023-03-03T00:48:29.441Z,29.48
2023-03-03T00:51:30.872Z,29.58
2023-03-03T00:54:20.029Z,31.70
2023-03-03T00:57:09.384Z,35.35
2023-03-03T00:59:59.436Z,32.03
2023-03-03T01:02:50.564Z,35.80
2023-03-03T01:05:39.882Z,32.92
2023-03-03T01:08:30.563Z,35.95
2023-03-03T01:11:24.399Z,35.22
2023-03-03T01:14:13.605Z,33.60
2023-03-03T01:17:02.856Z,39.08
2023-03-03T01:19:52.136Z,37.50
2023-03-03T01:22:41.706Z,48.85
2023-03-03T01:25:34.681Z,50.28
2023-03-03T01:28:24.494Z,39.72
2023-03-03T01:31:14.588Z,44.15
2023-03-03T01:34:03.812Z,36.28
2023-03-03T01:36:53.063Z,33.28
2023-03-03T01:39:42.477Z,29.42
2023-03-03T01:42:33.477Z,31.90
2023-03-03T01:45:26.754Z,32.33
2023-03-03T01:51:21.775Z,35.37
2023-03-03T01:54:18.412Z,29.15
2023-03-03T01:57:15.141Z,30.17
2023-03-03T02:00:08.565Z,31.67
2023-03-03T02:03:03.686Z,30.67
2023-03-03T02:05:57.164Z,29.70
2023-03-03T02:09:01.517Z,38.85
2023-03-03T02:11:56.045Z,34.20
2023-03-03T02:14:45.538Z,31.10
2023-03-03T02:17:36.215Z,25.73
2023-03-03T02:20:45.323Z,28.65
2023-03-03T02:23:44.276Z,28.05
2023-03-03T02:26:38.358Z,30.05
2023-03-03T02:29:30.761Z,24.60
2023-03-03T02:32:20.656Z,27.52
2023-03-03T02:35:33.441Z,26.05
2023-03-03T02:38:28.372Z,28.60
2023-03-03T02:41:29.050Z,27.88
2023-03-03T02:44:23.667Z,27.52
2023-03-03T02:47:13.066Z,34.60
2023-03-03T02:50:02.262Z,30.75
2023-03-03T02:52:51.579Z,32.20
2023-03-03T02:55:41.619Z,30.58
2023-03-03T02:58:31.286Z,30.85
2023-03-03T03:01:22.512Z,31.27
2023-03-03T03:04:16.913Z,35.03
2023-03-03T03:07:08.737Z,32.72
2023-03-03T03:09:59.917Z,33.22
2023-03-03T03:12:51.826Z,34.00
2023-03-03T03:15:41.608Z,30.58
2023-03-03T03:18:32.217Z,31.90
2023-03-03T03:21:21.907Z,29.90
2023-03-03T03:24:11.791Z,34.60
2023-03-03T03:27:05.408Z,33.67
2023-03-03T03:29:55.124Z,34.72
2023-03-03T03:32:45.030Z,26.35
2023-03-03T03:35:37.244Z,27.27
2023-03-03T03:38:29.855Z,27.75
2023-03-03T03:41:19.263Z,23.13
2023-03-03T03:44:08.645Z,25.77
2023-03-03T03:46:58.027Z,26.30
2023-03-03T03:49:49.333Z,28.40
2023-03-03T03:52:40.028Z,25.70
2023-03-03T03:55:30.135Z,24.65
2023-03-03T03:58:20.632Z,24.13
2023-03-03T04:01:16.361Z,22.70
2023-03-03T04:04:09.839Z,23.38
2023-03-03T04:06:59.635Z,26.27
2023-03-03T04:09:51.245Z,26.98
2023-03-03T04:12:41.366Z,24.97
2023-03-03T04:15:34.883Z,23.38
2023-03-03T04:18:24.984Z,27.50
2023-03-03T04:21:15.826Z,26.75
2023-03-03T04:24:06.980Z,24.65
2023-03-03T04:26:58.033Z,24.83
2023-03-03T04:29:47.334Z,24.42
2023-03-03T04:32:36.689Z,24.75
2023-03-03T04:35:28.580Z,24.83
2023-03-03T04:38:19.197Z,25.40
2023-03-03T04:41:10.224Z,23.58
2023-03-03T04:44:02.821Z,25.70
2023-03-03T04:46:52.211Z,24.15
2023-03-03T04:49:42.107Z,23.33
2023-03-03T04:52:31.790Z,31.35
2023-03-03T04:55:21.661Z,54.85
2023-03-03T04:58:16.080Z,55.53
2023-03-03T05:01:07.771Z,75.57
2023-03-03T05:04:01.017Z,71.68
2023-03-03T05:06:50.272Z,55.75
2023-03-03T05:09:39.704Z,34.75
2023-03-03T05:12:29.337Z,46.10
2023-03-03T05:15:19.471Z,34.75
2023-03-03T05:18:11.302Z,23.75
2023-03-03T05:21:00.665Z,22.67
2023-03-03T05:23:49.859Z,23.75
2023-03-03T05:26:39.300Z,21.70
2023-03-03T05:29:31.500Z,22.00
2023-03-03T05:32:20.721Z,19.67
2023-03-03T05:35:12.018Z,20.92
2023-03-03T05:38:03.164Z,19.85
2023-03-03T05:40:54.797Z,19.35
2023-03-03T05:43:44.582Z,17.13
2023-03-03T05:46:34.019Z,16.10
2023-03-03T05:49:23.544Z,17.90
2023-03-03T05:52:17.406Z,16.17
2023-03-03T05:55:08.006Z,17.50
2023-03-03T05:57:57.369Z,16.13
2023-03-03T06:00:46.679Z,16.10
2023-03-03T06:03:36.033Z,16.40
2023-03-03T06:06:28.428Z,15.88
2023-03-03T06:09:19.335Z,18.42
2023-03-03T06:12:08.969Z,16.00
2023-03-03T06:14:58.214Z,18.50
2023-03-03T06:17:47.412Z,16.42
2023-03-03T06:20:36.758Z,16.52
2023-03-03T06:23:26.221Z,18.08
2023-03-03T06:26:17.289Z,17.45
2023-03-03T06:29:07.231Z,15.27
2023-03-03T06:31:56.767Z,15.88
2023-03-03T06:34:46.348Z,14.52
2023-03-03T06:37:35.611Z,16.85
2023-03-03T06:40:24.985Z,16.20
2023-03-03T06:43:15.883Z,16.38
2023-03-03T06:46:05.697Z,16.05
2023-03-03T06:48:55.578Z,17.05
2023-03-03T06:51:46.559Z,16.00
2023-03-03T06:54:35.961Z,16.67
2023-03-03T06:57:28.993Z,18.25
2023-03-03T07:00:25.043Z,17.65
2023-03-03T07:03:20.545Z,16.45
2023-03-03T07:06:22.870Z,18.13
2023-03-03T07:09:21.831Z,16.58
2023-03-03T07:12:16.940Z,17.48
2023-03-03T07:15:17.679Z,17.67
2023-03-03T07:18:26.704Z,17.75
2023-03-03T07:21:20.897Z,16.75
2023-03-03T07:24:29.013Z,16.85
2023-03-03T07:27:25.609Z,17.15
2023-03-03T07:30:29.101Z,17.67
2023-03-03T07:33:28.191Z,17.05
2023-03-03T07:36:30.514Z,19.10
2023-03-03T07:39:32.647Z,15.65
2023-03-03T07:42:27.885Z,15.77
2023-03-03T07:45:35.588Z,15.77
2023-03-03T07:48:32.910Z,17.13
2023-03-03T07:51:27.804Z,15.05
2023-03-03T07:54:32.063Z,14.45
2023-03-03T07:57:26.994Z,14.63
2023-03-03T08:01:13.566Z,16.88
2023-03-03T08:04:07.491Z,17.08
2023-03-03T08:06:58.690Z,17.45
2023-03-03T08:09:53.385Z,16.58
2023-03-03T08:12:45.207Z,17.70
2023-03-03T08:15:39.084Z,16.30
2023-03-03T08:18:35.801Z,16.17
2023-03-03T08:21:27.656Z,17.73
2023-03-03T08:24:16.935Z,18.13
2023-03-03T08:27:06.515Z,18.73
2023-03-03T08:29:55.727Z,18.85
2023-03-03T08:32:45.122Z,19.15
2023-03-03T08:35:34.416Z,18.23
2023-03-03T08:38:25.280Z,18.15
2023-03-03T08:41:14.964Z,20.77
2023-03-03T08:44:04.696Z,20.58
2023-03-03T08:46:53.865Z,21.38
2023-03-03T08:49:43.158Z,21.52
2023-03-03T08:52:32.542Z,23.17
2023-03-03T08:55:23.337Z,22.55
2023-03-03T08:58:12.589Z,20.58
2023-03-03T09:01:01.906Z,20.48
2023-03-03T09:03:51.212Z,20.67
2023-03-03T09:06:40.849Z,26.20
2023-03-03T09:09:30.163Z,29.83
2023-03-03T09:12:26.353Z,24.55
2023-03-03T09:15:23.650Z,38.25
2023-03-03T09:18:18.166Z,39.72
2023-03-03T09:21:24.350Z,31.63
2023-03-03T09:24:26.859Z,23.33
2023-03-03T09:27:28.461Z,23.53
2023-03-03T09:30:37.449Z,22.90
2023-03-03T09:33:41.850Z,21.70
2023-03-03T09:36:37.245Z,22.65
2023-03-03T09:39:28.328Z,22.30
2023-03-03T09:42:51.028Z,24.88
2023-03-03T09:45:59.003Z,24.33
2023-03-03T09:49:03.361Z,24.30
2023-03-03T09:52:23.190Z,26.30
2023-03-03T09:55:38.234Z,26.88
2023-03-03T09:58:47.673Z,26.25
2023-03-03T10:01:56.957Z,26.23
2023-03-03T10:05:16.360Z,27.05
2023-03-03T10:08:28.079Z,26.42
2023-03-03T10:11:26.958Z,24.70
2023-03-03T10:14:44.621Z,23.60
2023-03-03T10:17:49.633Z,23.23
2023-03-03T10:20:51.321Z,24.20
2023-03-03T10:23:58.896Z,23.98
2023-03-03T10:27:13.526Z,25.85
2023-03-03T10:30:14.563Z,21.90
2023-03-03T10:33:11.522Z,23.50
2023-03-03T10:36:20.033Z,21.45
2023-03-03T10:39:40.984Z,24.77
2023-03-03T10:43:07.860Z,22.50
2023-03-03T10:46:34.239Z,16.38
2023-03-03T10:49:44.955Z,14.38
2023-03-03T10:52:45.094Z,16.50
2023-03-03T10:55:42.086Z,16.17
2023-03-03T10:59:08.164Z,17.55
2023-03-03T11:02:02.561Z,17.38
2023-03-03T11:05:17.129Z,20.23
2023-03-03T11:08:13.029Z,28.00
2023-03-03T11:11:14.225Z,24.25
2023-03-03T11:14:11.317Z,26.58
2023-03-03T11:17:13.073Z,29.42
2023-03-03T11:20:13.010Z,24.50
2023-03-03T11:23:29.121Z,22.38
2023-03-03T11:26:31.165Z,31.38
2023-03-03T11:30:09.615Z,19.65
2023-03-03T11:33:06.688Z,22.40
2023-03-03T11:36:11.701Z,18.50
2023-03-03T11:39:03.402Z,21.58
2023-03-03T11:42:09.402Z,24.85
2023-03-03T11:45:04.399Z,22.90
2023-03-03T11:48:03.648Z,22.30
2023-03-03T11:51:01.105Z,22.70
2023-03-03T11:54:00.829Z,23.85
2023-03-03T11:56:50.544Z,30.52
2023-03-03T11:59:50.259Z,38.55
2023-03-03T12:03:14.438Z,43.13
2023-03-03T12:06:17.630Z,39.20
2023-03-03T12:09:37.404Z,36.33
2023-03-03T12:12:34.361Z,40.70
2023-03-03T12:15:34.827Z,44.95
2023-03-03T12:18:48.518Z,43.28
2023-03-03T12:21:55.928Z,42.03
2023-03-03T12:25:07.769Z,44.75
2023-03-03T12:28:05.693Z,40.20
2023-03-03T12:31:25.223Z,39.30
2023-03-03T12:34:25.478Z,36.78
2023-03-03T12:37:41.050Z,38.67
2023-03-03T12:40:35.097Z,33.63
2023-03-03T12:43:45.031Z,34.22
2023-03-03T12:46:45.991Z,32.00
2023-03-03T12:49:52.104Z,31.48
2023-03-03T12:53:00.000Z,28.77
2023-03-03T12:55:54.850Z,28.93
2023-03-03T12:58:55.737Z,30.08
2023-03-03T13:02:14.724Z,32.30
2023-03-03T13:05:20.852Z,27.15
2023-03-03T13:08:35.127Z,30.77
2023-03-03T13:11:55.172Z,30.63
2023-03-03T13:14:53.797Z,47.28
2023-03-03T13:17:53.696Z,30.83
2023-03-03T13:20:50.365Z,28.90
2023-03-03T13:23:52.527Z,31.70
2023-03-03T13:26:46.289Z,27.92
2023-03-03T13:29:41.807Z,33.30
2023-03-03T13:32:42.765Z,30.80
2023-03-03T13:35:42.420Z,34.08
2023-03-03T13:38:42.314Z,25.60
2023-03-03T13:41:50.909Z,30.50
2023-03-03T13:44:51.553Z,26.88
2023-03-03T13:47:54.422Z,29.60
2023-03-03T13:50:52.430Z,30.50
2023-03-03T13:53:53.963Z,24.33
2023-03-03T13:57:21.487Z,25.73
2023-03-03T14:00:27.922Z,22.95
2023-03-03T14:04:01.902Z,17.85
2023-03-03T14:07:09.847Z,24.63
2023-03-03T14:10:09.975Z,30.60
2023-03-03T14:13:07.874Z,26.20
2023-03-03T14:16:06.021Z,29.67
2023-03-03T14:19:04.289Z,36.05
2023-03-03T14:22:08.281Z,38.67
2023-03-03T14:25:09.748Z,47.60
2023-03-03T14:28:14.075Z,41.97
2023-03-03T14:31:22.685Z,44.28
2023-03-03T14:34:38.712Z,63.25
2023-03-03T14:37:30.774Z,33.58
2023-03-03T14:40:39.226Z,33.92
2023-03-03T14:43:42.838Z,42.03
2023-03-03T14:46:41.780Z,29.40
2023-03-03T14:49:36.566Z,26.80
2023-03-03T14:52:28.826Z,26.23
2023-03-03T14:55:37.284Z,34.00
2023-03-03T14:58:36.342Z,34.42
2023-03-03T15:01:33.163Z,17.83
2023-03-03T15:04:28.824Z,17.35
2023-03-03T15:07:32.847Z,14.77
2023-03-03T15:10:36.737Z,15.73
2023-03-03T15:13:36.617Z,20.65
2023-03-03T15:16:32.954Z,15.80
2023-03-03T15:19:49.492Z,15.02
2023-03-03T15:22:50.222Z,30.90
2023-03-03T15:25:53.722Z,15.13
2023-03-03T15:29:00.609Z,13.50
2023-03-03T15:32:00.457Z,16.30
2023-03-03T15:35:00.227Z,16.20
2023-03-03T15:37:58.339Z,17.50
2023-03-03T15:40:54.501Z,17.13
2023-03-03T15:43:58.679Z,16.45
2023-03-03T15:47:24.419Z,14.48
2023-03-03T15:50:31.465Z,24.90
2023-03-03T15:53:45.147Z,45.22
2023-03-03T16:00:07.336Z,20.88
2023-03-03T16:03:14.875Z,22.50
2023-03-03T16:06:12.456Z,19.08
2023-03-03T16:09:11.185Z,19.00
2023-03-03T16:12:13.797Z,23.10
2023-03-03T16:15:43.353Z,21.52
2023-03-03T16:18:50.894Z,19.70
2023-03-03T16:22:12.499Z,17.00
2023-03-03T16:25:21.907Z,23.60
2023-03-03T16:28:20.359Z,29.40
2023-03-03T16:31:18.481Z,17.45
2023-03-03T16:34:18.774Z,21.40
2023-03-03T16:37:19.866Z,23.70
2023-03-03T16:40:19.301Z,18.73
2023-03-03T16:43:24.404Z,36.72
2023-03-03T16:46:31.344Z,20.20
2023-03-03T16:49:29.899Z,14.85
2023-03-03T16:52:26.825Z,15.45
2023-03-03T16:55:21.240Z,15.50
2023-03-03T16:58:31.809Z,12.13
2023-03-03T17:01:32.596Z,11.85
2023-03-03T17:04:41.110Z,35.30
2023-03-03T17:07:45.644Z,14.43
2023-03-03T17:10:43.526Z,12.57
2023-03-03T17:14:04.418Z,16.77
2023-03-03T17:17:03.987Z,19.42
2023-03-03T17:20:09.173Z,13.52
2023-03-03T17:23:20.057Z,14.52
2023-03-03T17:26:32.681Z,26.52
2023-03-03T17:30:01.893Z,14.87
2023-03-03T17:33:15.174Z,13.10
2023-03-03T17:36:26.558Z,12.95
2023-03-03T17:39:51.770Z,15.32
2023-03-03T17:42:52.200Z,23.98
2023-03-03T17:45:45.970Z,10.90
2023-03-03T17:49:08.040Z,14.25
2023-03-03T17:52:19.602Z,12.23
2023-03-03T17:55:25.616Z,13.40
2023-03-03T17:58:49.233Z,12.25
2023-03-03T18:02:00.992Z,13.50
2023-03-03T18:05:15.020Z,14.02
2023-03-03T18:08:20.960Z,13.40
2023-03-03T18:11:24.452Z,13.68
2023-03-03T18:14:53.762Z,15.90
2023-03-03T18:18:03.978Z,13.63
2023-03-03T18:21:04.435Z,14.05
2023-03-03T18:23:53.712Z,14.63
2023-03-03T18:26:43.860Z,10.88
2023-03-03T18:29:33.210Z,14.80
2023-03-03T18:32:25.273Z,15.88
2023-03-03T18:35:26.357Z,13.57
2023-03-03T18:38:39.661Z,12.48
2023-03-03T18:41:31.540Z,16.27
2023-03-03T18:44:30.694Z,19.20
2023-03-03T18:47:43.194Z,16.42
2023-03-03T18:50:36.889Z,20.92
2023-03-03T18:53:31.036Z,14.98
2023-03-03T18:56:50.975Z,15.90
2023-03-03T18:59:55.729Z,22.70
2023-03-03T19:02:54.678Z,16.35
2023-03-03T19:05:54.240Z,22.92
2023-03-03T19:08:58.550Z,21.60
2023-03-03T19:11:56.241Z,23.45
2023-03-03T19:14:48.016Z,31.00
2023-03-03T19:17:59.038Z,28.38
2023-03-03T19:20:57.573Z,32.92
2023-03-03T19:24:00.209Z,32.53
2023-03-03T19:27:36.435Z,26.38
2023-03-03T19:30:53.031Z,19.45
2023-03-03T19:33:57.297Z,19.73
2023-03-03T19:37:06.064Z,19.30
2023-03-03T19:40:13.509Z,22.55
2023-03-03T19:43:18.705Z,18.92
2023-03-03T19:46:33.715Z,14.85
2023-03-03T19:50:10.807Z,16.48
2023-03-03T19:53:16.575Z,17.10
2023-03-03T19:56:22.574Z,20.95
2023-03-03T19:59:27.009Z,21.38
2023-03-03T20:02:45.058Z,17.00
2023-03-03T20:05:43.341Z,15.57
2023-03-03T20:08:42.451Z,19.27
2023-03-03T20:11:48.431Z,17.67
2023-03-03T20:14:49.214Z,15.98
2023-03-03T20:18:01.143Z,16.48
2023-03-03T20:21:13.466Z,16.15
2023-03-03T20:24:25.600Z,16.30
2023-03-03T20:27:20.797Z,17.98
2023-03-03T20:30:48.656Z,18.90
2023-03-03T20:33:51.177Z,16.48
2023-03-03T20:36:57.325Z,16.30
2023-03-03T20:40:04.689Z,18.27
2023-03-03T20:43:06.535Z,20.00
2023-03-03T20:46:09.855Z,19.80
2023-03-03T20:49:38.760Z,21.25
2023-03-03T20:52:41.588Z,18.02
2023-03-03T20:55:47.663Z,18.30
2023-03-03T20:58:52.948Z,17.30
2023-03-03T21:01:53.282Z,17.17
2023-03-03T21:04:42.535Z,18.80
2023-03-03T21:07:31.802Z,21.55
2023-03-03T21:10:25.183Z,16.88
2023-03-03T21:13:30.041Z,16.10
2023-03-03T21:16:33.324Z,16.08
2023-03-03T21:22:18.241Z,18.75
2023-03-03T21:25:08.582Z,22.42
2023-03-03T21:28:18.147Z,18.20
2023-03-03T21:31:16.961Z,22.08
2023-03-03T21:34:29.074Z,26.95
2023-03-03T21:37:49.997Z,29.52
2023-03-03T21:40:39.945Z,24.52
2023-03-03T21:43:37.478Z,24.80
2023-03-03T21:46:27.352Z,24.23
2023-03-03T21:49:16.644Z,26.65
2023-03-03T21:52:07.746Z,28.52
2023-03-03T21:54:56.970Z,26.48
2023-03-03T21:57:46.244Z,21.05
2023-03-03T22:00:35.427Z,20.42
2023-03-03T22:03:26.040Z,23.50
2023-03-03T22:06:15.249Z,28.80
2023-03-03T22:09:06.392Z,45.75
2023-03-03T22:11:55.687Z,61.88
2023-03-03T22:14:45.019Z,48.40
2023-03-03T22:17:34.188Z,37.47
2023-03-03T22:20:23.368Z,23.20
2023-03-03T22:23:12.855Z,28.50
2023-03-03T22:26:03.569Z,36.42
2023-03-03T22:28:52.838Z,32.60
2023-03-03T22:31:42.070Z,23.85
2023-03-03T22:34:31.387Z,24.63
2023-03-03T22:37:20.586Z,25.15
2023-03-03T22:40:11.789Z,24.38
2023-03-03T22:43:02.406Z,22.75
2023-03-03T22:45:51.937Z,16.20
2023-03-03T22:48:41.855Z,11.90
2023-03-03T22:51:31.083Z,30.08
2023-03-03T22:54:20.311Z,12.63
2023-03-03T22:57:13.240Z,12.73
2023-03-03T23:00:03.980Z,12.68
2023-03-03T23:02:53.503Z,10.57
2023-03-03T23:05:42.886Z,10.80
2023-03-03T23:08:32.190Z,11.27
2023-03-03T23:11:21.808Z,12.55
2023-03-03T23:14:11.106Z,12.18
2023-03-03T23:17:01.856Z,13.15
2023-03-03T23:19:51.781Z,11.77
2023-03-03T23:22:41.043Z,12.93
2023-03-03T23:25:30.618Z,12.43
2023-03-03T23:28:20.054Z,12.27
2023-03-03T23:31:09.480Z,13.00
2023-03-03T23:34:00.217Z,11.63
2023-03-03T23:36:49.449Z,11.88
2023-03-03T23:39:40.670Z,15.88
2023-03-03T23:42:30.996Z,15.18
2023-03-03T23:45:20.336Z,14.35
2023-03-03T23:48:09.620Z,15.07
2023-03-03T23:51:01.581Z,14.98
2023-03-03T23:53:50.808Z,13.25
2023-03-03T23:56:40.062Z,14.98
2023-03-03T23:59:29.328Z,13.80
